sensor_id;sensor_type;location;lat;lon;timestamp;pressure;altitude;pressure_sealevel;temperature;humidity
47761;BME280;33524;55.434;38.520;2024-02-23T00:01:07;100691.53;;;-1.63;78.49
47761;BME280;33524;55.434;38.520;2024-02-23T00:03:36;100690.94;;;-1.78;79.37
47761;BME280;33524;55.434;38.520;2024-02-23T00:06:05;100683.72;;;-1.59;78.67
47761;BME280;33524;55.434;38.520;2024-02-23T00:08:33;100675.53;;;-1.81;79.27
47761;BME280;33524;55.434;38.520;2024-02-23T00:11:01;100678.94;;;-1.81;79.81
47761;BME280;33524;55.434;38.520;2024-02-23T00:13:30;100684.66;;;-1.64;78.81
47761;BME280;33524;55.434;38.520;2024-02-23T00:15:58;100676.75;;;-1.53;78.24
47761;BME280;33524;55.434;38.520;2024-02-23T00:18:26;100680.16;;;-1.51;78.15
47761;BME280;33524;55.434;38.520;2024-02-23T00:20:54;100674.37;;;-1.65;78.62
47761;BME280;33524;55.434;38.520;2024-02-23T00:23:24;100675.25;;;-1.66;78.93
47761;BME280;33524;55.434;38.520;2024-02-23T00:25:53;100678.59;;;-1.61;78.58
47761;BME280;33524;55.434;38.520;2024-02-23T00:28:21;100678.56;;;-1.59;78.62
47761;BME280;33524;55.434;38.520;2024-02-23T00:30:49;100685.94;;;-1.88;80.13
47761;BME280;33524;55.434;38.520;2024-02-23T00:33:17;100681.25;;;-1.66;79.18
47761;BME280;33524;55.434;38.520;2024-02-23T00:35:45;100679.59;;;-1.70;79.17
47761;BME280;33524;55.434;38.520;2024-02-23T00:38:13;100678.72;;;-1.67;79.03
47761;BME280;33524;55.434;38.520;2024-02-23T00:40:41;100681.63;;;-1.87;79.98
47761;BME280;33524;55.434;38.520;2024-02-23T00:43:09;100674.34;;;-1.64;79.27
47761;BME280;33524;55.434;38.520;2024-02-23T00:45:37;100685.34;;;-1.54;78.59
47761;BME280;33524;55.434;38.520;2024-02-23T00:48:06;100682.00;;;-1.59;78.65
47761;BME280;33524;55.434;38.520;2024-02-23T00:50:34;100683.66;;;-1.55;78.39
47761;BME280;33524;55.434;38.520;2024-02-23T00:53:04;100666.66;;;-1.67;78.70
47761;BME280;33524;55.434;38.520;2024-02-23T00:55:32;100681.03;;;-1.53;78.56
47761;BME280;33524;55.434;38.520;2024-02-23T00:58:00;100680.38;;;-1.63;78.93
47761;BME280;33524;55.434;38.520;2024-02-23T01:00:28;100680.28;;;-1.60;78.78
47761;BME280;33524;55.434;38.520;2024-02-23T01:02:57;100681.00;;;-1.50;78.39
47761;BME280;33524;55.434;38.520;2024-02-23T01:05:27;100682.88;;;-1.60;78.74
47761;BME280;33524;55.434;38.520;2024-02-23T01:07:55;100681.53;;;-1.83;80.37
47761;BME280;33524;55.434;38.520;2024-02-23T01:10:24;100675.94;;;-1.56;78.95
47761;BME280;33524;55.434;38.520;2024-02-23T01:12:51;100678.72;;;-1.67;79.32
47761;BME280;33524;55.434;38.520;2024-02-23T01:15:19;100684.00;;;-1.76;80.07
47761;BME280;33524;55.434;38.520;2024-02-23T01:17:48;100680.41;;;-1.66;79.16
47761;BME280;33524;55.434;38.520;2024-02-23T01:20:16;100685.34;;;-1.54;78.75
47761;BME280;33524;55.434;38.520;2024-02-23T01:22:45;100675.31;;;-1.69;79.44
47761;BME280;33524;55.434;38.520;2024-02-23T01:25:13;100687.22;;;-1.62;79.28
47761;BME280;33524;55.434;38.520;2024-02-23T01:27:43;100682.16;;;-1.70;79.41
47761;BME280;33524;55.434;38.520;2024-02-23T01:30:14;100688.81;;;-1.55;78.91
47761;BME280;33524;55.434;38.520;2024-02-23T01:32:42;100690.87;;;-1.75;79.70
47761;BME280;33524;55.434;38.520;2024-02-23T01:35:11;100693.09;;;-1.55;78.91
47761;BME280;33524;55.434;38.520;2024-02-23T01:37:39;100680.47;;;-1.69;79.45
47761;BME280;33524;55.434;38.520;2024-02-23T01:40:07;100684.81;;;-1.73;79.74
47761;BME280;33524;55.434;38.520;2024-02-23T01:42:36;100692.69;;;-1.80;80.03
47761;BME280;33524;55.434;38.520;2024-02-23T01:45:05;100687.19;;;-1.60;79.18
47761;BME280;33524;55.434;38.520;2024-02-23T01:47:33;100679.56;;;-1.67;79.34
47761;BME280;33524;55.434;38.520;2024-02-23T01:50:02;100686.38;;;-1.64;79.27
47761;BME280;33524;55.434;38.520;2024-02-23T01:52:31;100690.59;;;-1.58;79.24
47761;BME280;33524;55.434;38.520;2024-02-23T01:54:59;100684.59;;;-1.60;79.10
47761;BME280;33524;55.434;38.520;2024-02-23T01:57:29;100681.19;;;-1.61;79.19
47761;BME280;33524;55.434;38.520;2024-02-23T02:00:18;100680.19;;;-1.54;78.83
47761;BME280;33524;55.434;38.520;2024-02-23T02:02:49;100686.25;;;-1.56;78.91
47761;BME280;33524;55.434;38.520;2024-02-23T02:05:18;100677.59;;;-1.54;78.75
47761;BME280;33524;55.434;38.520;2024-02-23T02:07:47;100676.03;;;-1.61;78.97
47761;BME280;33524;55.434;38.520;2024-02-23T02:10:18;100666.69;;;-1.68;79.09
47761;BME280;33524;55.434;38.520;2024-02-23T02:12:48;100652.97;;;-1.72;78.84
47761;BME280;33524;55.434;38.520;2024-02-23T02:15:16;100673.34;;;-1.56;78.85
47761;BME280;33524;55.434;38.520;2024-02-23T02:17:45;100672.47;;;-1.55;78.77
47761;BME280;33524;55.434;38.520;2024-02-23T02:20:14;100683.47;;;-1.46;nan
47761;BME280;33524;55.434;38.520;2024-02-23T02:22:42;100682.78;;;-1.55;79.04
47761;BME280;33524;55.434;38.520;2024-02-23T02:25:14;100682.88;;;-1.62;79.36
47761;BME280;33524;55.434;38.520;2024-02-23T02:27:45;100680.38;;;-1.63;79.28
47761;BME280;33524;55.434;38.520;2024-02-23T02:30:13;100671.69;;;-1.59;78.76
47761;BME280;33524;55.434;38.520;2024-02-23T02:32:41;100688.75;;;-1.52;78.99
47761;BME280;33524;55.434;38.520;2024-02-23T02:35:11;100682.00;;;-1.59;79.22
47761;BME280;33524;55.434;38.520;2024-02-23T02:37:40;100690.59;;;-1.58;79.27
47761;BME280;33524;55.434;38.520;2024-02-23T02:40:08;100683.81;;;-1.64;79.58
47761;BME280;33524;55.434;38.520;2024-02-23T02:42:36;100685.44;;;-1.60;79.46
47761;BME280;33524;55.434;38.520;2024-02-23T02:45:05;100687.00;;;-1.50;78.83
47761;BME280;33524;55.434;38.520;2024-02-23T02:47:33;100689.62;;;-1.53;78.87
47761;BME280;33524;55.434;38.520;2024-02-23T02:50:02;100685.66;;;-1.72;80.08
47761;BME280;33524;55.434;38.520;2024-02-23T02:52:30;100679.34;;;-1.56;79.19
47761;BME280;33524;55.434;38.520;2024-02-23T02:54:58;100687.31;;;-1.68;80.01
47761;BME280;33524;55.434;38.520;2024-02-23T02:57:26;100698.13;;;-1.99;82.02
47761;BME280;33524;55.434;38.520;2024-02-23T02:59:55;100694.63;;;-1.95;81.86
47761;BME280;33524;55.434;38.520;2024-02-23T03:02:23;100686.28;;;-1.58;79.68
47761;BME280;33524;55.434;38.520;2024-02-23T03:04:51;100699.47;;;-1.76;80.70
47761;BME280;33524;55.434;38.520;2024-02-23T03:07:20;100685.34;;;-1.54;79.24
47761;BME280;33524;55.434;38.520;2024-02-23T03:09:48;100687.72;;;-1.43;78.65
47761;BME280;33524;55.434;38.520;2024-02-23T03:12:18;100690.69;;;-1.63;79.58
47761;BME280;33524;55.434;38.520;2024-02-23T03:14:47;100693.25;;;-1.63;79.63
47761;BME280;33524;55.434;38.520;2024-02-23T03:17:15;100697.53;;;-1.62;79.55
47761;BME280;33524;55.434;38.520;2024-02-23T03:19:43;100708.44;;;-1.48;78.86
47761;BME280;33524;55.434;38.520;2024-02-23T03:22:12;100698.97;;;-1.46;78.89
47761;BME280;33524;55.434;38.520;2024-02-23T03:24:40;100700.72;;;-1.48;78.90
47761;BME280;33524;55.434;38.520;2024-02-23T03:27:08;100693.16;;;-1.58;79.45
47761;BME280;33524;55.434;38.520;2024-02-23T03:29:38;100700.94;;;-1.60;79.60
47761;BME280;33524;55.434;38.520;2024-02-23T03:32:07;100708.53;;;-1.51;78.99
47761;BME280;33524;55.434;38.520;2024-02-23T03:34:35;100711.94;;;-1.50;79.11
47761;BME280;33524;55.434;38.520;2024-02-23T03:37:05;100712.13;;;-1.61;79.56
47761;BME280;33524;55.434;38.520;2024-02-23T03:39:32;100715.53;;;-1.59;79.35
47761;BME280;33524;55.434;38.520;2024-02-23T03:42:01;100720.59;;;-1.53;79.21
47761;BME280;33524;55.434;38.520;2024-02-23T03:44:30;100719.72;;;-1.53;79.27
47761;BME280;33524;55.434;38.520;2024-02-23T03:46:59;100717.00;;;-1.46;78.70
47761;BME280;33524;55.434;38.520;2024-02-23T03:49:27;100719.19;;;-1.72;80.03
47761;BME280;33524;55.434;38.520;2024-02-23T03:51:56;100718.87;;;-1.54;79.26
47761;BME280;33524;55.434;38.520;2024-02-23T03:54:24;100730.75;;;-1.44;78.82
47761;BME280;33524;55.434;38.520;2024-02-23T03:56:52;100739.63;;;-1.62;79.48
47761;BME280;33524;55.434;38.520;2024-02-23T03:59:20;100735.69;;;-1.83;80.52
47761;BME280;33524;55.434;38.520;2024-02-23T04:01:48;100749.06;;;-1.59;79.94
47761;BME280;33524;55.434;38.520;2024-02-23T04:04:17;100741.19;;;-1.51;79.43
47761;BME280;33524;55.434;38.520;2024-02-23T04:06:45;100736.91;;;-1.51;79.19
47761;BME280;33524;55.434;38.520;2024-02-23T04:09:13;100736.94;;;-1.55;79.33
47761;BME280;33524;55.434;38.520;2024-02-23T04:11:41;100742.31;;;-1.68;80.00
47761;BME280;33524;55.434;38.520;2024-02-23T04:14:10;100743.13;;;-1.66;79.92
47761;BME280;33524;55.434;38.520;2024-02-23T04:16:38;100738.78;;;-1.62;79.64
47761;BME280;33524;55.434;38.520;2024-02-23T04:19:06;100745.47;;;-1.49;79.22
47761;BME280;33524;55.434;38.520;2024-02-23T04:21:38;100749.16;;;-1.65;79.87
47761;BME280;33524;55.434;38.520;2024-02-23T04:24:06;100745.28;;;-1.39;78.76
47761;BME280;33524;55.434;38.520;2024-02-23T04:26:36;100738.87;;;-1.68;79.75
47761;BME280;33524;55.434;38.520;2024-02-23T04:29:04;100750.84;;;-1.64;79.74
47761;BME280;33524;55.434;38.520;2024-02-23T04:31:33;100741.91;;;-1.96;80.70
47761;BME280;33524;55.434;38.520;2024-02-23T04:34:01;100757.56;;;-1.54;79.51
47761;BME280;33524;55.434;38.520;2024-02-23T04:36:29;100749.63;;;-1.42;78.84
47761;BME280;33524;55.434;38.520;2024-02-23T04:38:58;100752.50;;;-1.58;79.50
47761;BME280;33524;55.434;38.520;2024-02-23T04:41:26;100757.53;;;-1.51;79.10
47761;BME280;33524;55.434;38.520;2024-02-23T04:43:54;100752.37;;;-1.51;79.30
47761;BME280;33524;55.434;38.520;2024-02-23T04:46:31;100754.16;;;-1.56;79.42
47761;BME280;33524;55.434;38.520;2024-02-23T04:48:59;100756.66;;;-1.51;79.17
47761;BME280;33524;55.434;38.520;2024-02-23T04:51:27;100757.53;;;-1.51;79.22
47761;BME280;33524;55.434;38.520;2024-02-23T04:53:55;100760.94;;;-1.49;79.15
47761;BME280;33524;55.434;38.520;2024-02-23T04:56:23;100759.13;;;-1.44;79.02
47761;BME280;33524;55.434;38.520;2024-02-23T04:58:51;100760.84;;;-1.43;78.91
47761;BME280;33524;55.434;38.520;2024-02-23T05:01:20;100757.28;;;-1.37;78.61
47761;BME280;33524;55.434;38.520;2024-02-23T05:03:48;100760.00;;;-1.45;78.83
47761;BME280;33524;55.434;38.520;2024-02-23T05:06:16;100762.63;;;-1.49;79.28
47761;BME280;33524;55.434;38.520;2024-02-23T05:08:45;100732.72;;;-1.59;79.24
47761;BME280;33524;55.434;38.520;2024-02-23T05:11:14;100759.28;;;-1.53;79.67
47761;BME280;33524;55.434;38.520;2024-02-23T05:13:44;100759.19;;;-1.47;79.11
47761;BME280;33524;55.434;38.520;2024-02-23T05:16:14;100755.63;;;-1.41;78.95
47761;BME280;33524;55.434;38.520;2024-02-23T05:18:43;100761.75;;;-1.47;79.14
47761;BME280;33524;55.434;38.520;2024-02-23T05:21:11;100763.44;;;-1.46;78.98
47761;BME280;33524;55.434;38.520;2024-02-23T05:23:39;100765.87;;;-1.36;78.61
47761;BME280;33524;55.434;38.520;2024-02-23T05:26:07;100766.84;;;-1.42;78.86
47761;BME280;33524;55.434;38.520;2024-02-23T05:28:36;100760.03;;;-1.46;79.20
47761;BME280;33524;55.434;38.520;2024-02-23T05:31:05;100763.31;;;-1.38;78.81
47761;BME280;33524;55.434;38.520;2024-02-23T05:33:33;100761.50;;;-1.33;78.48
47761;BME280;33524;55.434;38.520;2024-02-23T05:36:01;100769.41;;;-1.40;78.96
47761;BME280;33524;55.434;38.520;2024-02-23T05:38:29;100765.91;;;-1.39;78.95
47761;BME280;33524;55.434;38.520;2024-02-23T05:40:58;100778.19;;;-1.54;79.88
47761;BME280;33524;55.434;38.520;2024-02-23T05:43:26;100771.00;;;-1.35;78.90
47761;BME280;33524;55.434;38.520;2024-02-23T05:45:54;100761.59;;;-1.39;78.93
47761;BME280;33524;55.434;38.520;2024-02-23T05:48:24;100759.84;;;-1.37;78.70
47761;BME280;33524;55.434;38.520;2024-02-23T05:50:53;100762.41;;;-1.34;nan
47761;BME280;33524;55.434;38.520;2024-02-23T05:53:21;100759.75;;;-1.31;78.43
47761;BME280;33524;55.434;38.520;2024-02-23T05:55:49;100764.97;;;-1.32;78.60
47761;BME280;33524;55.434;38.520;2024-02-23T05:58:18;100762.47;;;-1.38;79.04
47761;BME280;33524;55.434;38.520;2024-02-23T06:00:46;100757.25;;;-1.35;78.70
47761;BME280;33524;55.434;38.520;2024-02-23T06:03:14;100772.81;;;-1.40;79.27
47761;BME280;33524;55.434;38.520;2024-02-23T06:05:42;100790.97;;;-1.46;79.50
47761;BME280;33524;55.434;38.520;2024-02-23T06:08:10;100794.31;;;-1.41;79.23
47761;BME280;33524;55.434;38.520;2024-02-23T06:10:39;100798.56;;;-1.37;78.92
47761;BME280;33524;55.434;38.520;2024-02-23T06:13:07;100797.78;;;-1.42;79.17
47761;BME280;33524;55.434;38.520;2024-02-23T06:15:35;100801.12;;;-1.35;78.86
47761;BME280;33524;55.434;38.520;2024-02-23T06:18:03;100800.13;;;-1.28;78.50
47761;BME280;33524;55.434;38.520;2024-02-23T06:20:31;100795.00;;;-1.30;78.59
47761;BME280;33524;55.434;38.520;2024-02-23T06:22:59;100799.16;;;-1.23;78.85
47761;BME280;33524;55.434;38.520;2024-02-23T06:25:28;100799.97;;;-1.19;79.43
47761;BME280;33524;55.434;38.520;2024-02-23T06:27:56;100799.09;;;-1.18;78.32
47761;BME280;33524;55.434;38.520;2024-02-23T06:30:24;100806.94;;;-1.24;78.44
47761;BME280;33524;55.434;38.520;2024-02-23T06:32:53;100815.56;;;-1.25;78.60
47761;BME280;33524;55.434;38.520;2024-02-23T06:35:21;100829.31;;;-1.23;78.53
47761;BME280;33524;55.434;38.520;2024-02-23T06:37:49;100817.31;;;-1.27;78.51
47761;BME280;33524;55.434;38.520;2024-02-23T06:40:18;100819.84;;;-1.24;78.36
47761;BME280;33524;55.434;38.520;2024-02-23T06:42:46;100813.91;;;-1.28;nan
47761;BME280;33524;55.434;38.520;2024-02-23T06:45:14;100817.31;;;-1.27;78.65
47761;BME280;33524;55.434;38.520;2024-02-23T06:47:44;100793.47;;;-1.42;78.66
47761;BME280;33524;55.434;38.520;2024-02-23T06:50:12;100809.69;;;-1.35;78.55
47761;BME280;33524;55.434;38.520;2024-02-23T06:52:42;100818.19;;;-1.28;78.81
47761;BME280;33524;55.434;38.520;2024-02-23T06:55:10;100817.25;;;-1.23;78.36
47761;BME280;33524;55.434;38.520;2024-02-23T06:57:39;100819.91;;;-1.27;78.41
47761;BME280;33524;55.434;38.520;2024-02-23T07:00:07;100823.31;;;-1.27;78.45
47761;BME280;33524;55.434;38.520;2024-02-23T07:02:37;100825.16;;;-1.33;78.93
47761;BME280;33524;55.434;38.520;2024-02-23T07:05:05;100815.75;;;-1.34;78.92
47761;BME280;33524;55.434;38.520;2024-02-23T07:07:34;100821.62;;;-1.28;78.61
47761;BME280;33524;55.434;38.520;2024-02-23T07:10:03;100825.88;;;-1.24;78.49
47761;BME280;33524;55.434;38.520;2024-02-23T07:12:31;100825.91;;;-1.25;78.60
47761;BME280;33524;55.434;38.520;2024-02-23T07:14:59;100818.19;;;-1.28;78.84
47761;BME280;33524;55.434;38.520;2024-02-23T07:17:31;100821.56;;;-1.23;78.49
47761;BME280;33524;55.434;38.520;2024-02-23T07:19:59;100820.66;;;-1.22;78.57
47761;BME280;33524;55.434;38.520;2024-02-23T07:22:34;100822.53;;;-1.30;79.09
47761;BME280;33524;55.434;38.520;2024-02-23T07:25:02;100824.16;;;-1.26;79.04
47761;BME280;33524;55.434;38.520;2024-02-23T07:27:31;100825.91;;;-1.25;79.08
47761;BME280;33524;55.434;38.520;2024-02-23T07:30:00;100830.97;;;-1.20;78.87
47761;BME280;33524;55.434;38.520;2024-02-23T07:32:29;100831.88;;;-1.23;79.18
47761;BME280;33524;55.434;38.520;2024-02-23T07:34:58;100836.97;;;-1.18;78.88
47761;BME280;33524;55.434;38.520;2024-02-23T07:37:26;100825.91;;;-1.25;79.56
47761;BME280;33524;55.434;38.520;2024-02-23T07:39:55;100824.13;;;-1.22;78.95
47761;BME280;33524;55.434;38.520;2024-02-23T07:42:23;100842.12;;;-1.20;79.07
47761;BME280;33524;55.434;38.520;2024-02-23T07:44:52;100838.78;;;-1.24;78.99
47761;BME280;33524;55.434;38.520;2024-02-23T07:47:20;100839.63;;;-1.23;79.02
47761;BME280;33524;55.434;38.520;2024-02-23T07:49:49;100845.59;;;-1.21;79.10
47761;BME280;33524;55.434;38.520;2024-02-23T07:52:17;100844.63;;;-1.14;78.80
47761;BME280;33524;55.434;38.520;2024-02-23T07:54:46;100845.59;;;-1.19;78.95
47761;BME280;33524;55.434;38.520;2024-02-23T07:57:14;100851.59;;;-1.17;79.04
47761;BME280;33524;55.434;38.520;2024-02-23T07:59:44;100848.91;;;-1.13;78.70
47761;BME280;33524;55.434;38.520;2024-02-23T08:02:17;100849.84;;;-1.17;79.82
47761;BME280;33524;55.434;38.520;2024-02-23T08:04:48;100848.91;;;-1.13;78.86
47761;BME280;33524;55.434;38.520;2024-02-23T08:07:19;100844.63;;;-1.14;79.15
47761;BME280;33524;55.434;38.520;2024-02-23T08:09:48;100843.75;;;-1.13;78.87
47761;BME280;33524;55.434;38.520;2024-02-23T08:12:17;100846.34;;;-1.14;79.03
47761;BME280;33524;55.434;38.520;2024-02-23T08:14:45;100843.69;;;-1.10;78.71
47761;BME280;33524;55.434;38.520;2024-02-23T08:17:14;100853.19;;;-1.12;78.99
47761;BME280;33524;55.434;38.520;2024-02-23T08:29:03;100857.37;;;-1.03;79.75
47761;BME280;33524;55.434;38.520;2024-02-23T08:31:33;100852.97;;;-0.98;79.32
47761;BME280;33524;55.434;38.520;2024-02-23T08:34:01;100850.37;;;-0.99;80.33
47761;BME280;33524;55.434;38.520;2024-02-23T08:36:29;100861.50;;;-0.94;79.13
47761;BME280;33524;55.434;38.520;2024-02-23T08:38:58;100865.03;;;-0.98;79.23
47761;BME280;33524;55.434;38.520;2024-02-23T08:41:27;100871.84;;;-0.94;79.12
47761;BME280;33524;55.434;38.520;2024-02-23T08:43:55;100875.28;;;-0.95;79.38
47761;BME280;33524;55.434;38.520;2024-02-23T08:46:24;100865.66;;;-0.87;81.00
47761;BME280;33524;55.434;38.520;2024-02-23T08:48:52;100871.63;;;-0.82;79.63
47761;BME280;33524;55.434;38.520;2024-02-23T08:51:21;100860.50;;;-0.86;78.81
47761;BME280;33524;55.434;38.520;2024-02-23T08:53:49;100865.62;;;-0.83;78.68
47761;BME280;33524;55.434;38.520;2024-02-23T08:56:18;100864.47;;;-0.68;79.16
47761;BME280;33524;55.434;38.520;2024-02-23T08:58:46;100869.78;;;-0.77;78.59
47761;BME280;33524;55.434;38.520;2024-02-23T09:01:15;100868.09;;;-0.78;79.67
47761;BME280;33524;55.434;38.520;2024-02-23T09:03:43;100874.25;;;-0.85;78.62
47761;BME280;33524;55.434;38.520;2024-02-23T09:06:11;100879.38;;;-0.82;79.08
47761;BME280;33524;55.434;38.520;2024-02-23T09:08:40;100878.44;;;-0.78;78.30
47761;BME280;33524;55.434;38.520;2024-02-23T09:11:11;100875.88;;;-0.79;78.93
47761;BME280;33524;55.434;38.520;2024-02-23T09:13:42;100878.53;;;-0.84;78.59
47761;BME280;33524;55.434;38.520;2024-02-23T09:16:10;100876.78;;;-0.82;78.78
47761;BME280;33524;55.434;38.520;2024-02-23T09:18:38;100871.63;;;-0.82;78.37
47761;BME280;33524;55.434;38.520;2024-02-23T09:21:10;100874.13;;;-0.79;78.31
47761;BME280;33524;55.434;38.520;2024-02-23T09:23:43;100876.69;;;-0.76;79.08
47761;BME280;33524;55.434;38.520;2024-02-23T09:26:12;100881.84;;;-0.76;78.63
47761;BME280;33524;55.434;38.520;2024-02-23T09:28:40;100891.97;;;-0.64;79.44
47761;BME280;33524;55.434;38.520;2024-02-23T09:31:09;100890.28;;;-0.66;77.92
47761;BME280;33524;55.434;38.520;2024-02-23T09:33:38;100892.03;;;-0.68;78.04
47761;BME280;33524;55.434;38.520;2024-02-23T09:36:08;100893.72;;;-0.67;78.39
47761;BME280;33524;55.434;38.520;2024-02-23T09:38:38;100891.03;;;-0.61;78.42
47761;BME280;33524;55.434;38.520;2024-02-23T09:41:20;100888.44;;;-0.59;77.87
47761;BME280;33524;55.434;38.520;2024-02-23T09:43:58;100887.69;;;-0.66;78.77
47761;BME280;33524;55.434;38.520;2024-02-23T09:46:30;100900.69;;;-0.71;78.31
47761;BME280;33524;55.434;38.520;2024-02-23T09:48:59;100895.50;;;-0.71;78.37
47761;BME280;33524;55.434;38.520;2024-02-23T09:51:29;100899.81;;;-0.70;78.35
47761;BME280;33524;55.434;38.520;2024-02-23T09:54:00;100899.84;;;-0.71;78.46
47761;BME280;33524;55.434;38.520;2024-02-23T09:56:31;100891.16;;;-0.69;78.71
47761;BME280;33524;55.434;38.520;2024-02-23T09:59:03;100896.22;;;-0.61;78.60
47761;BME280;33524;55.434;38.520;2024-02-23T10:01:33;100899.72;;;-0.64;78.21
47761;BME280;33524;55.434;38.520;2024-02-23T10:04:01;100906.41;;;-0.53;78.69
47761;BME280;33524;55.434;38.520;2024-02-23T10:06:34;100902.06;;;-0.51;78.04
47761;BME280;33524;55.434;38.520;2024-02-23T10:09:03;100899.41;;;-0.48;78.73
47761;BME280;33524;55.434;38.520;2024-02-23T10:11:32;100907.19;;;-0.50;78.83
47761;BME280;33524;55.434;38.520;2024-02-23T10:14:01;100905.50;;;-0.51;78.42
47761;BME280;33524;55.434;38.520;2024-02-23T10:16:29;100902.78;;;-0.45;77.95
47761;BME280;33524;55.434;38.520;2024-02-23T10:18:57;100912.22;;;-0.42;78.52
47761;BME280;33524;55.434;38.520;2024-02-23T10:21:26;100901.87;;;-0.42;77.72
47761;BME280;33524;55.434;38.520;2024-02-23T10:23:55;100908.00;;;-0.48;77.94
47761;BME280;33524;55.434;38.520;2024-02-23T10:26:23;100912.41;;;-0.51;78.17
47761;BME280;33524;55.434;38.520;2024-02-23T10:28:55;100913.00;;;-0.37;78.16
47761;BME280;33524;55.434;38.520;2024-02-23T10:31:24;100907.87;;;-0.40;77.70
47761;BME280;33524;55.434;38.520;2024-02-23T10:33:54;100913.84;;;-0.38;77.71
47761;BME280;33524;55.434;38.520;2024-02-23T10:36:29;100917.47;;;-0.45;77.96
47761;BME280;33524;55.434;38.520;2024-02-23T10:39:00;100924.41;;;-0.50;78.15
47761;BME280;33524;55.434;38.520;2024-02-23T10:41:34;100915.50;;;-0.34;79.19
47761;BME280;33524;55.434;38.520;2024-02-23T10:44:03;100923.56;;;-0.49;78.20
47761;BME280;33524;55.434;38.520;2024-02-23T10:46:35;100927.94;;;-0.54;78.37
47761;BME280;33524;55.434;38.520;2024-02-23T10:49:04;100921.81;;;-0.47;78.43
47761;BME280;33524;55.434;38.520;2024-02-23T10:51:35;100922.44;;;-0.36;78.60
47761;BME280;33524;55.434;38.520;2024-02-23T10:54:07;100933.25;;;-0.15;79.39
47761;BME280;33524;55.434;38.520;2024-02-23T10:56:54;100933.56;;;-0.31;77.64
47761;BME280;33524;55.434;38.520;2024-02-23T10:59:25;100931.31;;;-0.49;78.64
47761;BME280;33524;55.434;38.520;2024-02-23T11:01:55;100939.78;;;-0.41;78.52
47761;BME280;33524;55.434;38.520;2024-02-23T11:04:27;100938.87;;;-0.40;78.41
47761;BME280;33524;55.434;38.520;2024-02-23T11:06:56;100937.84;;;-0.30;78.49
47761;BME280;33524;55.434;38.520;2024-02-23T11:09:32;100930.91;;;-0.28;78.93
47761;BME280;33524;55.434;38.520;2024-02-23T11:12:04;100942.88;;;-0.24;78.80
47761;BME280;33524;55.434;38.520;2024-02-23T11:14:36;100927.25;;;-0.17;78.54
47761;BME280;33524;55.434;38.520;2024-02-23T11:17:05;100938.41;;;-0.14;78.04
47761;BME280;33524;55.434;38.520;2024-02-23T11:19:35;100944.91;;;0.06;78.67
47761;BME280;33524;55.434;38.520;2024-02-23T11:22:04;100944.97;;;0.03;77.74
47761;BME280;33524;55.434;38.520;2024-02-23T11:24:43;100945.63;;;0.12;77.56
47761;BME280;33524;55.434;38.520;2024-02-23T11:27:16;100941.19;;;0.19;77.56
47761;BME280;33524;55.434;38.520;2024-02-23T11:29:47;100939.72;;;0.06;76.51
47761;BME280;33524;55.434;38.520;2024-02-23T11:32:19;100952.59;;;0.09;77.51
47761;BME280;33524;55.434;38.520;2024-02-23T11:34:56;100960.97;;;0.22;76.39
47761;BME280;33524;55.434;38.520;2024-02-23T11:37:28;100950.06;;;0.06;76.84
47761;BME280;33524;55.434;38.520;2024-02-23T11:39:57;100954.59;;;-0.04;77.93
47761;BME280;33524;55.434;38.520;2024-02-23T11:42:27;100948.59;;;-0.06;77.73
47761;BME280;33524;55.434;38.520;2024-02-23T11:44:55;100949.09;;;0.11;78.84
47761;BME280;33524;55.434;38.520;2024-02-23T11:47:23;100954.72;;;-0.10;77.95
47761;BME280;33524;55.434;38.520;2024-02-23T11:49:52;100952.75;;;0.01;77.93
47761;BME280;33524;55.434;38.520;2024-02-23T11:52:21;100953.78;;;-0.06;77.68
47761;BME280;33524;55.434;38.520;2024-02-23T11:54:49;100960.19;;;0.16;77.37
47761;BME280;33524;55.434;38.520;2024-02-23T11:57:18;100959.59;;;0.04;77.62
47761;BME280;33524;55.434;38.520;2024-02-23T11:59:46;100962.47;;;-0.10;78.09
47761;BME280;33524;55.434;38.520;2024-02-23T12:02:14;100954.81;;;-0.16;78.77
47761;BME280;33524;55.434;38.520;2024-02-23T12:04:43;100958.38;;;-0.22;78.83
47761;BME280;33524;55.434;38.520;2024-02-23T12:07:12;100963.53;;;-0.21;78.72
47761;BME280;33524;55.434;38.520;2024-02-23T12:09:40;100962.81;;;-0.29;78.98
47761;BME280;33524;55.434;38.520;2024-02-23T12:12:09;100963.63;;;-0.27;78.98
47761;BME280;33524;55.434;38.520;2024-02-23T12:14:38;100961.06;;;-0.28;79.75
47761;BME280;33524;55.434;38.520;2024-02-23T12:17:08;100969.69;;;-0.29;79.36
47761;BME280;33524;55.434;38.520;2024-02-23T12:19:40;100970.56;;;-0.29;79.26
47761;BME280;33524;55.434;38.520;2024-02-23T12:22:11;100967.19;;;-0.34;79.31
47761;BME280;33524;55.434;38.520;2024-02-23T12:24:41;100972.44;;;-0.37;79.50
47761;BME280;33524;55.434;38.520;2024-02-23T12:27:09;100970.59;;;-0.32;79.41
47761;BME280;33524;55.434;38.520;2024-02-23T12:29:37;100974.91;;;-0.31;79.70
47761;BME280;33524;55.434;38.520;2024-02-23T12:32:06;100974.00;;;-0.28;80.21
47761;BME280;33524;55.434;38.520;2024-02-23T12:34:35;100972.44;;;-0.37;80.14
47761;BME280;33524;55.434;38.520;2024-02-23T12:37:03;100985.25;;;-0.31;79.63
47761;BME280;33524;55.434;38.520;2024-02-23T12:39:33;100977.44;;;-0.28;79.61
47761;BME280;33524;55.434;38.520;2024-02-23T12:42:01;100978.97;;;-0.19;80.66
47761;BME280;33524;55.434;38.520;2024-02-23T12:44:33;100978.12;;;-0.18;80.76
47761;BME280;33524;55.434;38.520;2024-02-23T12:47:02;100983.50;;;-0.30;79.73
47761;BME280;33524;55.434;38.520;2024-02-23T12:49:31;100984.34;;;-0.30;80.08
47761;BME280;33524;55.434;38.520;2024-02-23T12:51:59;100986.06;;;-0.29;79.98
47761;BME280;33524;55.434;38.520;2024-02-23T12:54:28;100971.53;;;-0.34;80.05
47761;BME280;33524;55.434;38.520;2024-02-23T12:56:56;100974.91;;;-0.31;80.42
47761;BME280;33524;55.434;38.520;2024-02-23T12:59:24;100969.78;;;-0.34;80.24